createdAt,value
2019-04-25T03:00:55.052Z,5.47
2019-04-25T03:01:44.484Z,5.37
2019-04-25T03:02:41.925Z,5.29
2019-04-25T03:03:41.911Z,5.33
2019-04-25T03:04:44.228Z,5.24
2019-04-25T03:05:41.893Z,5.29
2019-04-25T03:06:41.961Z,5.09
2019-04-25T03:07:44.372Z,5.09
2019-04-25T03:08:41.875Z,4.90
2019-04-25T03:09:41.851Z,4.86
2019-04-25T03:10:43.848Z,4.84
2019-04-25T03:11:41.818Z,4.68
2019-04-25T03:12:41.818Z,4.54
2019-04-25T03:13:43.975Z,4.61
2019-04-25T03:14:41.790Z,4.64
2019-04-25T03:15:44.065Z,4.61
2019-04-25T03:16:41.768Z,4.61
2019-04-25T03:17:44.109Z,4.61
2019-04-25T03:18:41.745Z,4.57
2019-04-25T03:19:43.823Z,4.59
2019-04-25T03:20:41.732Z,4.46
2019-04-25T03:21:41.712Z,4.49
2019-04-25T03:22:44.239Z,4.47
2019-04-25T03:23:42.818Z,4.43
2019-04-25T03:24:41.679Z,4.47
2019-04-25T03:25:43.405Z,4.64
2019-04-25T03:26:41.659Z,4.77
2019-04-25T03:27:41.683Z,4.88
2019-04-25T03:28:41.649Z,4.93
2019-04-25T03:29:41.633Z,4.94
2019-04-25T03:30:41.640Z,4.88
2019-04-25T03:31:41.618Z,4.79
2019-04-25T03:32:41.600Z,4.65
2019-04-25T03:33:41.597Z,4.59
2019-04-25T03:34:41.576Z,4.68
2019-04-25T03:35:43.152Z,4.67
2019-04-25T03:36:41.553Z,4.72
2019-04-25T03:37:43.310Z,4.64
2019-04-25T03:38:41.542Z,4.59
2019-04-25T03:39:41.538Z,4.64
2019-04-25T03:40:41.513Z,4.61
2019-04-25T03:41:41.499Z,4.44
2019-04-25T03:42:41.488Z,4.50
2019-04-25T03:43:41.495Z,4.44
2019-04-25T03:44:41.479Z,4.38
2019-04-25T03:45:41.460Z,4.32
2019-04-25T03:46:41.448Z,4.32
2019-04-25T03:47:41.435Z,4.26
2019-04-25T03:48:41.438Z,4.20
2019-04-25T03:49:41.428Z,4.20
2019-04-25T03:50:41.404Z,4.10
2019-04-25T03:51:41.393Z,4.08
2019-04-25T03:52:41.382Z,4.04
2019-04-25T03:53:41.388Z,4.02
2019-04-25T03:54:41.360Z,3.95
2019-04-25T03:55:41.354Z,3.93
2019-04-25T03:56:51.942Z,3.81
2019-04-25T03:57:42.328Z,3.80
2019-04-25T03:58:41.327Z,3.88
2019-04-25T03:59:41.306Z,3.99
2019-04-25T04:00:41.297Z,4.24
2019-04-25T04:01:41.296Z,4.64
2019-04-25T04:02:41.280Z,4.87
2019-04-25T04:03:41.273Z,4.86
2019-04-25T04:04:41.257Z,4.87
2019-04-25T04:05:41.246Z,4.87
2019-04-25T04:06:41.254Z,4.91
2019-04-25T04:07:41.227Z,4.96
2019-04-25T04:08:41.220Z,5.14
2019-04-25T04:09:41.201Z,5.27
2019-04-25T04:10:41.189Z,5.32
2019-04-25T04:11:41.180Z,5.41
2019-04-25T04:12:41.173Z,5.33
2019-04-25T04:13:41.357Z,5.29
2019-04-25T04:14:41.151Z,5.32
2019-04-25T04:15:41.137Z,5.30
2019-04-25T04:16:41.127Z,5.30
2019-04-25T04:17:41.117Z,5.24
2019-04-25T04:18:41.110Z,5.42
2019-04-25T04:19:41.118Z,5.37
2019-04-25T04:20:41.084Z,5.37
2019-04-25T04:21:41.088Z,5.47
2019-04-25T04:22:41.074Z,5.51
2019-04-25T04:23:41.055Z,5.47
2019-04-25T04:24:41.050Z,5.58
2019-04-25T04:25:41.047Z,5.70
2019-04-25T04:26:41.019Z,5.77
2019-04-25T04:27:41.013Z,5.78
2019-04-25T04:28:40.999Z,5.75
2019-04-25T04:29:41.000Z,5.85
2019-04-25T04:30:40.987Z,5.85
2019-04-25T04:31:40.972Z,5.92
2019-04-25T04:32:40.955Z,6.02
2019-04-25T04:33:40.945Z,5.99
2019-04-25T04:34:40.943Z,5.92
2019-04-25T04:35:40.923Z,6.01
2019-04-25T04:36:40.914Z,6.01
2019-04-25T04:37:40.909Z,6.17
2019-04-25T04:38:40.983Z,6.17
2019-04-25T04:39:40.892Z,6.13
2019-04-25T04:40:40.869Z,6.24
2019-04-25T04:41:40.860Z,6.16
2019-04-25T04:42:40.849Z,6.25
2019-04-25T04:43:40.842Z,6.25
2019-04-25T04:44:40.846Z,6.24
2019-04-25T04:45:43.138Z,6.27
2019-04-25T04:46:40.805Z,6.25
2019-04-25T04:47:40.796Z,6.20
2019-04-25T04:48:40.783Z,6.21
2019-04-25T04:49:40.800Z,6.25
2019-04-25T04:50:40.763Z,6.32
2019-04-25T04:51:40.752Z,6.32
2019-04-25T04:52:40.758Z,6.50
2019-04-25T04:53:40.732Z,6.53
2019-04-25T04:54:40.732Z,6.57
2019-04-25T04:55:40.734Z,6.58
2019-04-25T04:56:40.703Z,6.61
2019-04-25T04:57:40.690Z,6.63
2019-04-25T04:58:40.681Z,6.68
2019-04-25T04:59:40.668Z,6.82
2019-04-25T05:00:40.668Z,6.86
2019-04-25T05:01:40.653Z,6.81
2019-04-25T05:02:40.635Z,6.87
2019-04-25T05:03:40.625Z,6.94
2019-04-25T05:04:40.615Z,6.97
2019-04-25T05:05:40.615Z,6.99
2019-04-25T05:06:40.594Z,7.00
2019-04-25T05:07:40.609Z,6.96
2019-04-25T05:08:40.574Z,7.01
2019-04-25T05:09:40.565Z,7.00
2019-04-25T05:10:40.569Z,7.04
2019-04-25T05:11:40.545Z,7.01
2019-04-25T05:12:40.538Z,6.97
2019-04-25T05:13:40.552Z,7.11
2019-04-25T05:14:40.516Z,7.15
2019-04-25T05:15:40.532Z,7.23
2019-04-25T05:16:40.489Z,7.30
2019-04-25T05:17:40.477Z,7.27
2019-04-25T05:18:40.465Z,7.26
2019-04-25T05:19:40.478Z,7.39
2019-04-25T05:20:40.458Z,7.44
2019-04-25T05:21:40.434Z,7.45
2019-04-25T05:22:40.438Z,7.41
2019-04-25T05:23:40.423Z,7.50
2019-04-25T05:24:40.421Z,7.55
2019-04-25T05:25:40.404Z,7.60
2019-04-25T05:26:40.394Z,7.67
2019-04-25T05:27:59.066Z,7.66
2019-04-25T05:28:41.360Z,7.73
2019-04-25T05:29:40.350Z,7.73
2019-04-25T05:30:40.354Z,7.79
2019-04-25T05:31:40.335Z,8.04
2019-04-25T05:32:40.414Z,8.03
2019-04-25T05:33:40.307Z,8.06
2019-04-25T05:34:40.296Z,8.13
2019-04-25T05:35:40.298Z,8.28
2019-04-25T05:36:40.277Z,8.28
2019-04-25T05:37:40.268Z,8.37
2019-04-25T05:38:40.269Z,8.57
2019-04-25T05:39:40.243Z,8.54
2019-04-25T05:40:40.265Z,8.58
2019-04-25T05:41:40.234Z,8.60
2019-04-25T05:42:40.225Z,8.68
2019-04-25T05:43:40.201Z,8.94
2019-04-25T05:44:40.229Z,8.89
2019-04-25T05:45:40.194Z,9.08
2019-04-25T05:46:40.170Z,9.26
2019-04-25T05:47:40.170Z,9.48
2019-04-25T05:48:40.163Z,9.32
2019-04-25T05:49:40.146Z,9.23
2019-04-25T05:50:40.141Z,9.03
2019-04-25T05:51:40.118Z,9.04
2019-04-25T05:52:40.108Z,8.98
2019-04-25T05:53:40.098Z,8.98
2019-04-25T05:54:40.091Z,9.10
2019-04-25T05:55:40.094Z,9.15
2019-04-25T05:56:40.073Z,9.16
2019-04-25T05:57:47.791Z,9.34
2019-04-25T05:58:41.041Z,9.96
2019-04-25T05:59:40.031Z,10.20
2019-04-25T06:00:40.021Z,10.34
2019-04-25T06:01:40.046Z,10.55
2019-04-25T06:02:40.000Z,10.93
2019-04-25T06:03:39.988Z,11.12
2019-04-25T06:04:39.990Z,10.91
2019-04-25T06:05:39.966Z,10.98
2019-04-25T06:06:39.968Z,11.03
2019-04-25T06:07:39.959Z,11.28
2019-04-25T06:08:39.936Z,11.44
2019-04-25T06:09:39.924Z,11.78
2019-04-25T06:10:39.914Z,12.03
2019-04-25T06:11:39.914Z,12.30
2019-04-25T06:12:39.899Z,12.66
2019-04-25T06:13:39.882Z,12.84
2019-04-25T06:14:39.870Z,12.69
2019-04-25T06:15:39.865Z,12.88
2019-04-25T06:16:39.862Z,13.24
2019-04-25T06:17:39.840Z,13.48
2019-04-25T06:18:39.834Z,13.79
2019-04-25T06:19:39.816Z,14.11
2019-04-25T06:20:39.807Z,14.38
2019-04-25T06:21:39.813Z,14.45
2019-04-25T06:22:39.784Z,14.66
2019-04-25T06:23:39.775Z,15.01
2019-04-25T06:24:39.782Z,15.20
2019-04-25T06:25:40.098Z,15.51
2019-04-25T06:26:40.118Z,15.77
2019-04-25T06:27:39.732Z,15.67
2019-04-25T06:28:49.153Z,15.80
2019-04-25T06:29:40.712Z,16.03
2019-04-25T06:30:39.704Z,16.27
2019-04-25T06:31:39.700Z,16.65
2019-04-25T06:32:39.678Z,16.72
2019-04-25T06:33:39.751Z,17.07
2019-04-25T06:34:39.657Z,17.28
2019-04-25T06:35:39.646Z,17.28
2019-04-25T06:36:39.670Z,16.92
2019-04-25T06:37:39.625Z,17.33
2019-04-25T06:38:39.615Z,17.21
2019-04-25T06:39:39.604Z,17.33
2019-04-25T06:40:39.594Z,17.73
2019-04-25T06:41:39.606Z,17.99
2019-04-25T06:42:39.581Z,17.98
2019-04-25T06:43:39.560Z,18.36
2019-04-25T06:44:39.552Z,18.72
2019-04-25T06:45:39.538Z,18.50
2019-04-25T06:46:39.528Z,18.26
2019-04-25T06:47:39.528Z,18.36
2019-04-25T06:48:39.529Z,18.51
2019-04-25T06:49:39.500Z,19.09
2019-04-25T06:50:39.489Z,19.06
2019-04-25T06:51:39.473Z,19.49
2019-04-25T06:52:39.479Z,19.78
2019-04-25T06:53:39.452Z,19.78
2019-04-25T06:54:39.455Z,19.98
2019-04-25T06:55:39.430Z,19.50
2019-04-25T06:56:39.428Z,19.82
2019-04-25T06:57:39.419Z,20.41
2019-04-25T06:58:39.397Z,20.53
2019-04-25T06:59:41.382Z,20.90
2019-04-25T07:00:42.574Z,20.56
2019-04-25T07:01:40.368Z,20.98
2019-04-25T07:02:39.366Z,21.08
2019-04-25T07:03:39.346Z,20.48
2019-04-25T07:04:39.336Z,20.54
2019-04-25T07:05:40.747Z,19.92
2019-04-25T07:06:39.334Z,19.97
2019-04-25T07:07:39.311Z,19.60
2019-04-25T07:08:39.291Z,19.42
2019-04-25T07:09:39.323Z,19.40
2019-04-25T07:10:39.268Z,18.66
2019-04-25T07:11:39.259Z,16.67
2019-04-25T07:12:39.285Z,16.30
2019-04-25T07:13:39.238Z,15.27
2019-04-25T07:14:39.237Z,14.74
2019-04-25T07:15:39.216Z,14.35
2019-04-25T07:16:39.204Z,14.53
2019-04-25T07:17:39.210Z,14.69
2019-04-25T07:18:39.184Z,16.17
2019-04-25T07:19:39.175Z,17.53
2019-04-25T07:20:39.162Z,18.62
2019-04-25T07:21:39.151Z,19.52
2019-04-25T07:22:39.151Z,20.19
2019-04-25T07:23:39.129Z,20.53
2019-04-25T07:24:39.125Z,20.25
2019-04-25T07:25:39.138Z,19.97
2019-04-25T07:26:39.760Z,19.87
2019-04-25T07:27:39.110Z,20.08
2019-04-25T07:28:39.078Z,20.56
2019-04-25T07:29:39.066Z,20.51
2019-04-25T07:30:49.934Z,20.48
2019-04-25T07:31:40.069Z,20.15
2019-04-25T07:32:39.034Z,20.68
2019-04-25T07:33:39.039Z,20.94
2019-04-25T07:34:39.015Z,20.98
2019-04-25T07:35:39.021Z,21.49
2019-04-25T07:36:39.005Z,21.90
2019-04-25T07:37:41.498Z,22.33
2019-04-25T07:38:38.983Z,22.44
2019-04-25T07:39:38.961Z,22.27
2019-04-25T07:40:38.957Z,22.20
2019-04-25T07:41:38.949Z,21.63
2019-04-25T07:42:38.962Z,21.24
2019-04-25T07:43:38.929Z,21.00
2019-04-25T07:44:49.882Z,20.35
2019-04-25T07:45:39.897Z,21.18
2019-04-25T07:46:39.936Z,21.81
2019-04-25T07:47:38.930Z,21.85
2019-04-25T07:48:38.903Z,21.09
2019-04-25T07:49:38.852Z,20.90
2019-04-25T07:50:38.841Z,20.97
2019-04-25T07:51:38.830Z,20.37
2019-04-25T07:52:38.817Z,20.94
2019-04-25T07:53:38.815Z,21.58
2019-04-25T07:54:38.821Z,21.79
2019-04-25T07:55:38.893Z,21.36
2019-04-25T07:56:38.773Z,21.67
2019-04-25T07:57:38.763Z,21.18
2019-04-25T07:58:49.619Z,20.82
2019-04-25T07:59:39.743Z,20.76
2019-04-25T08:00:38.765Z,20.78
2019-04-25T08:01:39.108Z,20.40
2019-04-25T08:02:39.529Z,19.62
2019-04-25T08:03:38.709Z,20.23
2019-04-25T08:04:38.690Z,21.08
2019-04-25T08:05:38.675Z,21.61
2019-04-25T08:06:38.719Z,22.09
2019-04-25T08:07:38.657Z,22.33
2019-04-25T08:08:38.665Z,21.75
2019-04-25T08:09:38.639Z,21.27
2019-04-25T08:10:38.620Z,20.81
2019-04-25T08:11:38.608Z,20.90
2019-04-25T08:12:39.419Z,20.40
2019-04-25T08:13:38.601Z,21.08
2019-04-25T08:14:38.594Z,21.22
2019-04-25T08:15:38.574Z,19.95
2019-04-25T08:16:39.294Z,19.32
2019-04-25T08:17:39.910Z,17.99
2019-04-25T08:18:38.971Z,18.32
2019-04-25T08:19:39.347Z,19.38
2019-04-25T08:20:38.512Z,20.16
2019-04-25T08:21:38.502Z,20.78
2019-04-25T08:22:53.601Z,20.07
2019-04-25T08:23:39.482Z,20.50
2019-04-25T08:24:39.101Z,20.48
2019-04-25T08:25:39.653Z,20.90
2019-04-25T08:26:39.338Z,21.09
2019-04-25T08:27:38.915Z,21.00
2019-04-25T08:28:50.151Z,21.06
2019-04-25T08:29:39.857Z,21.36
2019-04-25T08:30:38.434Z,20.98
2019-04-25T08:31:39.090Z,20.37
2019-04-25T08:32:38.384Z,20.73
2019-04-25T08:33:39.078Z,20.93
2019-04-25T08:34:38.630Z,21.48
2019-04-25T08:35:38.349Z,21.27
2019-04-25T08:36:38.886Z,21.67
2019-04-25T08:37:38.328Z,21.79
2019-04-25T08:38:38.314Z,20.00
2019-04-25T08:39:38.906Z,20.26
2019-04-25T08:40:39.006Z,20.91
2019-04-25T08:41:38.506Z,20.53
2019-04-25T08:42:38.341Z,20.71
2019-04-25T08:43:39.426Z,20.57
2019-04-25T08:44:39.174Z,19.87
2019-04-25T08:45:38.471Z,20.79
2019-04-25T08:46:39.369Z,21.15
2019-04-25T08:47:38.218Z,21.94
2019-04-25T08:48:38.256Z,22.01
2019-04-25T08:49:38.255Z,21.30
2019-04-25T08:50:40.163Z,20.97
2019-04-25T08:51:38.195Z,21.79
2019-04-25T08:52:38.170Z,22.17
2019-04-25T08:53:38.894Z,21.28
2019-04-25T08:54:41.482Z,21.01
2019-04-25T08:55:39.130Z,20.34
2019-04-25T08:56:38.121Z,20.26
2019-04-25T08:57:38.120Z,20.82
2019-04-25T08:58:39.083Z,20.69
2019-04-25T08:59:42.391Z,20.51
2019-04-25T09:00:39.123Z,20.12
2019-04-25T09:01:40.753Z,20.17
2019-04-25T09:02:38.916Z,20.17
2019-04-25T09:03:38.062Z,20.30
2019-04-25T09:04:38.097Z,21.56
2019-04-25T09:05:38.936Z,21.56
2019-04-25T09:06:38.601Z,21.15
2019-04-25T09:07:39.023Z,20.64
2019-04-25T09:08:38.557Z,20.63
2019-04-25T09:09:38.971Z,20.20
2019-04-25T09:10:38.948Z,20.07
2019-04-25T09:11:39.977Z,19.87
2019-04-25T09:12:37.976Z,20.79
2019-04-25T09:13:38.658Z,22.02
2019-04-25T09:14:38.971Z,22.88
2019-04-25T09:15:38.117Z,22.75
2019-04-25T09:16:37.939Z,23.34
2019-04-25T09:17:38.082Z,23.84
2019-04-25T09:18:38.196Z,24.31
2019-04-25T09:19:38.471Z,25.05
2019-04-25T09:20:39.571Z,24.93
2019-04-25T09:21:37.884Z,23.99
2019-04-25T09:22:38.651Z,23.69
2019-04-25T09:23:37.905Z,23.07
2019-04-25T09:24:38.950Z,22.33
2019-04-25T09:25:38.642Z,22.14
2019-04-25T09:26:38.323Z,22.12
2019-04-25T09:27:39.706Z,21.67
2019-04-25T09:28:39.482Z,22.30
2019-04-25T09:29:37.768Z,23.34
2019-04-25T09:30:38.399Z,23.12
2019-04-25T09:31:39.324Z,22.85
2019-04-25T09:32:37.735Z,22.96
2019-04-25T09:33:37.725Z,22.74
2019-04-25T09:34:38.126Z,22.52
2019-04-25T09:35:37.741Z,23.47
2019-04-25T09:36:37.743Z,23.69
2019-04-25T09:37:38.681Z,23.09
2019-04-25T09:38:37.673Z,24.34
2019-04-25T09:39:37.665Z,25.45
2019-04-25T09:40:37.665Z,24.90
2019-04-25T09:41:37.877Z,24.05
2019-04-25T09:42:37.654Z,23.45
2019-04-25T09:43:37.626Z,23.92
2019-04-25T09:44:38.406Z,23.92
2019-04-25T09:45:37.675Z,23.38
2019-04-25T09:46:37.591Z,23.87
2019-04-25T09:47:37.582Z,22.94
2019-04-25T09:48:37.598Z,22.42
2019-04-25T09:49:37.975Z,21.77
2019-04-25T09:50:38.654Z,21.51
2019-04-25T09:51:37.674Z,22.39
2019-04-25T09:52:37.783Z,22.49
2019-04-25T09:53:43.379Z,22.05
2019-04-25T09:54:38.519Z,21.98
2019-04-25T09:55:37.588Z,21.96
2019-04-25T09:56:38.286Z,21.74
2019-04-25T09:57:37.472Z,21.74
2019-04-25T09:58:37.974Z,21.79
2019-04-25T09:59:37.603Z,21.82
2019-04-25T10:00:38.212Z,21.58
2019-04-25T10:01:37.912Z,22.24
2019-04-25T10:02:38.206Z,22.69
2019-04-25T10:03:37.456Z,23.09
2019-04-25T10:04:37.935Z,21.40
2019-04-25T10:05:38.369Z,21.46
2019-04-25T10:06:37.384Z,22.42
2019-04-25T10:07:38.456Z,21.89
2019-04-25T10:08:37.367Z,21.37
2019-04-25T10:09:37.403Z,21.52
2019-04-25T10:10:38.769Z,21.53
2019-04-25T10:11:38.303Z,21.43
2019-04-25T10:12:37.408Z,20.68
2019-04-25T10:13:37.576Z,20.68
2019-04-25T10:14:37.636Z,20.97
2019-04-25T10:15:37.533Z,21.63
2019-04-25T10:16:37.948Z,21.77
2019-04-25T10:17:37.754Z,21.93
2019-04-25T10:18:37.927Z,22.49
2019-04-25T10:19:37.755Z,23.57
2019-04-25T10:20:37.656Z,23.87
2019-04-25T10:21:38.067Z,24.02
2019-04-25T10:22:37.958Z,24.05
2019-04-25T10:23:37.449Z,24.45
2019-04-25T10:24:37.392Z,24.49
2019-04-25T10:25:38.047Z,24.77
2019-04-25T10:26:37.665Z,24.93
2019-04-25T10:27:37.245Z,25.29
2019-04-25T10:28:37.158Z,25.01
2019-04-25T10:29:44.817Z,24.02
2019-04-25T10:30:39.414Z,23.49
2019-04-25T10:31:37.129Z,22.29
2019-04-25T10:32:37.109Z,21.31
2019-04-25T10:33:37.128Z,21.38
2019-04-25T10:34:37.096Z,21.82
2019-04-25T10:35:48.099Z,22.04
2019-04-25T10:36:39.877Z,22.31
2019-04-25T10:37:37.054Z,22.75
2019-04-25T10:38:37.099Z,23.68
2019-04-25T10:39:37.040Z,24.15
2019-04-25T10:40:37.027Z,24.29
2019-04-25T10:41:37.049Z,23.84
2019-04-25T10:42:37.031Z,23.92
2019-04-25T10:43:36.991Z,23.31
2019-04-25T10:44:36.984Z,23.03
2019-04-25T10:45:37.003Z,22.63
2019-04-25T10:46:36.981Z,22.48
2019-04-25T10:47:36.955Z,22.52
2019-04-25T10:48:36.942Z,22.42
2019-04-25T10:49:36.939Z,22.38
2019-04-25T10:50:36.946Z,22.49
2019-04-25T10:51:36.929Z,23.54
2019-04-25T10:52:36.900Z,24.11
2019-04-25T10:53:36.889Z,24.79
2019-04-25T10:54:36.887Z,24.51
2019-04-25T10:55:36.897Z,25.02
2019-04-25T10:56:36.867Z,25.26
2019-04-25T10:57:37.041Z,25.12
2019-04-25T10:58:36.861Z,25.11
2019-04-25T10:59:36.850Z,25.30
2019-04-25T11:00:36.834Z,25.69
2019-04-25T11:01:36.826Z,25.93
2019-04-25T11:02:36.807Z,26.09
2019-04-25T11:03:36.831Z,25.59
2019-04-25T11:04:36.838Z,25.19
2019-04-25T11:05:36.767Z,25.30
2019-04-25T11:06:36.762Z,25.05
2019-04-25T11:07:36.759Z,25.11
2019-04-25T11:08:36.753Z,25.59
2019-04-25T11:09:36.770Z,25.93
2019-04-25T11:10:36.729Z,26.04
2019-04-25T11:11:36.705Z,25.93
2019-04-25T11:12:36.713Z,26.00
2019-04-25T11:13:36.799Z,26.03
2019-04-25T11:14:36.697Z,25.81
2019-04-25T11:15:36.674Z,25.14
2019-04-25T11:16:36.666Z,25.51
2019-04-25T11:17:36.724Z,25.45
2019-04-25T11:18:36.739Z,25.05
2019-04-25T11:19:37.325Z,25.35
2019-04-25T11:20:36.624Z,25.46
2019-04-25T11:21:36.625Z,25.54
2019-04-25T11:22:36.614Z,25.71
2019-04-25T11:23:36.678Z,25.81
2019-04-25T11:24:36.617Z,24.52
2019-04-25T11:25:36.659Z,24.70
2019-04-25T11:26:36.626Z,24.93
2019-04-25T11:27:36.635Z,25.12
2019-04-25T11:28:36.640Z,25.51
2019-04-25T11:29:36.530Z,25.59
2019-04-25T11:30:36.548Z,25.41
2019-04-25T11:31:36.622Z,25.04
2019-04-25T11:32:36.513Z,25.26
2019-04-25T11:33:36.525Z,24.97
2019-04-25T11:34:36.615Z,24.68
2019-04-25T11:35:36.574Z,24.37
2019-04-25T11:36:36.562Z,24.19
2019-04-25T11:37:36.514Z,24.48
2019-04-25T11:38:36.435Z,24.80
2019-04-25T11:39:36.470Z,24.51
2019-04-25T11:40:36.425Z,24.63
2019-04-25T11:41:36.409Z,24.79
2019-04-25T11:42:36.423Z,25.16
2019-04-25T11:43:36.389Z,25.20
2019-04-25T11:44:36.384Z,25.24
2019-04-25T11:45:36.365Z,25.17
2019-04-25T11:46:39.191Z,25.02
2019-04-25T11:47:36.396Z,25.09
2019-04-25T11:48:36.364Z,25.04
2019-04-25T11:49:36.326Z,25.02
2019-04-25T11:50:37.083Z,24.90
2019-04-25T11:51:36.306Z,24.67
2019-04-25T11:52:36.321Z,24.45
2019-04-25T11:53:36.335Z,24.41
2019-04-25T11:54:36.278Z,24.41
2019-04-25T11:55:36.268Z,24.34
2019-04-25T11:56:36.281Z,24.33
2019-04-25T11:57:36.248Z,24.44
2019-04-25T11:58:36.253Z,24.53
2019-04-25T11:59:36.284Z,24.44
2019-04-25T12:00:36.226Z,24.45
2019-04-25T12:01:36.216Z,24.42
2019-04-25T12:02:36.204Z,24.42
2019-04-25T12:03:36.201Z,24.45
2019-04-25T12:04:36.180Z,24.37
2019-04-25T12:05:36.217Z,24.34
2019-04-25T12:06:36.159Z,24.18
2019-04-25T12:07:36.150Z,24.44
2019-04-25T12:08:36.159Z,24.36
2019-04-25T12:09:36.137Z,24.51
2019-04-25T12:10:36.157Z,24.61
2019-04-25T12:11:36.124Z,24.55
2019-04-25T12:12:37.331Z,24.64
2019-04-25T12:13:36.105Z,24.49
2019-04-25T12:14:36.086Z,24.77
2019-04-25T12:15:36.076Z,24.74
2019-04-25T12:16:36.097Z,25.04
2019-04-25T12:17:36.088Z,24.83
2019-04-25T12:18:36.053Z,24.89
2019-04-25T12:19:38.074Z,24.99
2019-04-25T12:20:36.023Z,25.12
2019-04-25T12:21:36.012Z,25.49
2019-04-25T12:22:36.078Z,25.59
2019-04-25T12:23:36.007Z,25.59
2019-04-25T12:24:36.003Z,24.60
2019-04-25T12:25:35.981Z,24.63
2019-04-25T12:26:35.968Z,24.93
2019-04-25T12:27:35.953Z,25.08
2019-04-25T12:28:36.003Z,25.07
2019-04-25T12:29:38.660Z,24.71
2019-04-25T12:30:40.058Z,24.77
2019-04-25T12:31:35.909Z,24.60
2019-04-25T12:32:35.899Z,24.52
2019-04-25T12:33:35.899Z,24.64
2019-04-25T12:34:35.926Z,24.97
2019-04-25T12:35:35.875Z,25.23
2019-04-25T12:36:35.860Z,25.14
2019-04-25T12:37:35.859Z,25.01
2019-04-25T12:38:35.853Z,24.49
2019-04-25T12:39:35.831Z,24.16
2019-04-25T12:40:35.894Z,24.06
2019-04-25T12:41:35.813Z,24.41
2019-04-25T12:42:35.802Z,25.02
2019-04-25T12:43:35.802Z,25.34
2019-04-25T12:44:35.786Z,25.26
2019-04-25T12:45:35.778Z,25.64
2019-04-25T12:46:35.796Z,26.29
2019-04-25T12:47:35.770Z,26.16
2019-04-25T12:48:35.755Z,25.98
2019-04-25T12:49:35.730Z,25.61
2019-04-25T12:50:35.740Z,25.38
2019-04-25T12:51:35.712Z,25.44
2019-04-25T12:52:35.735Z,25.98
2019-04-25T12:53:35.702Z,26.36
2019-04-25T12:54:35.692Z,26.53
2019-04-25T12:55:35.676Z,25.89
2019-04-25T12:56:35.662Z,26.03
2019-04-25T12:57:35.651Z,26.08
2019-04-25T12:58:35.706Z,25.69
2019-04-25T12:59:35.630Z,24.48
2019-04-25T13:00:47.555Z,24.09
2019-04-25T13:01:36.608Z,23.90
2019-04-25T13:02:36.529Z,23.90
2019-04-25T13:03:35.613Z,23.71
2019-04-25T13:04:35.610Z,23.32
2019-04-25T13:05:35.567Z,23.39
2019-04-25T13:06:35.562Z,23.64
2019-04-25T13:07:35.548Z,23.90
2019-04-25T13:08:35.559Z,24.04
2019-04-25T13:09:35.528Z,24.16
2019-04-25T13:10:35.534Z,24.18
2019-04-25T13:11:35.564Z,23.89
2019-04-25T13:12:35.506Z,23.89
2019-04-25T13:13:35.486Z,23.69
2019-04-25T13:14:35.493Z,23.50
2019-04-25T13:15:35.482Z,22.64
2019-04-25T13:16:35.467Z,22.48
2019-04-25T13:17:35.456Z,22.61
2019-04-25T13:18:35.447Z,22.35
2019-04-25T13:19:35.452Z,22.49
2019-04-25T13:20:35.413Z,22.79
2019-04-25T13:21:35.407Z,23.15
2019-04-25T13:22:35.397Z,23.49
2019-04-25T13:23:35.403Z,23.67
2019-04-25T13:24:35.381Z,23.31
2019-04-25T13:25:35.362Z,23.53
2019-04-25T13:26:35.410Z,23.39
2019-04-25T13:27:35.381Z,23.53
2019-04-25T13:28:35.329Z,23.68
2019-04-25T13:29:35.338Z,23.06
2019-04-25T13:30:35.309Z,22.85
2019-04-25T13:31:35.325Z,22.48
2019-04-25T13:32:35.289Z,22.42
2019-04-25T13:33:35.282Z,22.52
2019-04-25T13:34:36.627Z,22.48
2019-04-25T13:35:35.262Z,22.74
2019-04-25T13:36:35.253Z,22.85
2019-04-25T13:37:35.246Z,23.00
2019-04-25T13:38:35.227Z,23.15
2019-04-25T13:39:35.243Z,23.12
2019-04-25T13:40:35.212Z,23.06
2019-04-25T13:41:35.194Z,23.19
2019-04-25T13:42:35.192Z,22.94
2019-04-25T13:43:35.193Z,22.99
2019-04-25T13:44:35.174Z,22.78
2019-04-25T13:45:35.154Z,22.84
2019-04-25T13:46:35.160Z,23.00
2019-04-25T13:47:35.129Z,23.16
2019-04-25T13:48:35.667Z,23.38
2019-04-25T13:49:35.120Z,23.59
2019-04-25T13:50:35.098Z,23.50
2019-04-25T13:51:35.087Z,23.67
2019-04-25T13:52:36.186Z,23.64
2019-04-25T13:53:35.075Z,23.82
2019-04-25T13:54:35.119Z,23.81
2019-04-25T13:55:35.048Z,23.82
2019-04-25T13:56:40.305Z,23.92
2019-04-25T13:57:36.039Z,24.19
2019-04-25T13:58:35.014Z,23.81
2019-04-25T13:59:35.014Z,23.75
2019-04-25T14:00:35.054Z,23.56
2019-04-25T14:01:34.988Z,23.45
2019-04-25T14:02:34.978Z,23.38
2019-04-25T14:03:35.688Z,23.18
2019-04-25T14:04:35.762Z,23.38
2019-04-25T14:05:35.328Z,23.45
2019-04-25T14:06:34.978Z,23.59
2019-04-25T14:07:34.921Z,23.63
2019-04-25T14:08:34.909Z,23.68
2019-04-25T14:09:34.922Z,23.77
2019-04-25T14:10:34.901Z,24.09
2019-04-25T14:11:35.684Z,24.24
2019-04-25T14:12:34.879Z,24.33
2019-04-25T14:13:34.866Z,24.46
2019-04-25T14:14:36.067Z,24.49
2019-04-25T14:15:34.849Z,24.67
2019-04-25T14:16:34.983Z,24.51
2019-04-25T14:17:35.715Z,24.31
2019-04-25T14:18:34.834Z,24.11
2019-04-25T14:19:34.909Z,23.90
2019-04-25T14:20:34.796Z,23.63
2019-04-25T14:21:34.775Z,23.44
2019-04-25T14:22:34.770Z,23.39
2019-04-25T14:23:35.741Z,23.07
2019-04-25T14:24:35.918Z,22.88
2019-04-25T14:25:35.263Z,22.70
2019-04-25T14:26:34.721Z,22.48
2019-04-25T14:27:34.730Z,22.51
2019-04-25T14:28:35.494Z,22.17
2019-04-25T14:29:34.841Z,22.14
2019-04-25T14:30:35.962Z,22.14
2019-04-25T14:31:45.487Z,22.21
2019-04-25T14:32:36.515Z,22.19
2019-04-25T14:33:35.385Z,22.19
2019-04-25T14:34:34.682Z,22.02
2019-04-25T14:35:34.623Z,21.93
2019-04-25T14:36:34.644Z,21.70
2019-04-25T14:37:39.405Z,21.48
2019-04-25T14:38:35.604Z,21.33
2019-04-25T14:39:34.581Z,21.21
2019-04-25T14:40:34.599Z,21.05
2019-04-25T14:41:34.562Z,20.94
2019-04-25T14:42:34.569Z,20.94
2019-04-25T14:43:34.601Z,20.97
2019-04-25T14:44:34.532Z,21.09
2019-04-25T14:45:43.121Z,21.05
2019-04-25T14:46:35.775Z,21.08
2019-04-25T14:47:34.496Z,20.94
2019-04-25T14:48:34.511Z,20.98
2019-04-25T14:49:34.477Z,20.90
2019-04-25T14:50:34.478Z,20.91
2019-04-25T14:51:34.478Z,20.79
2019-04-25T14:52:35.537Z,20.87
2019-04-25T14:53:35.215Z,20.76
2019-04-25T14:54:36.043Z,20.88
2019-04-25T14:55:34.433Z,20.78
2019-04-25T14:56:34.402Z,20.79
2019-04-25T14:57:35.011Z,20.75
2019-04-25T14:58:34.380Z,20.76
2019-04-25T14:59:34.369Z,20.81
2019-04-25T15:00:34.413Z,20.94
2019-04-25T15:01:44.640Z,20.94
2019-04-25T15:02:36.346Z,20.98
2019-04-25T15:03:34.942Z,21.06
2019-04-25T15:04:35.127Z,21.12
2019-04-25T15:05:34.945Z,21.22
2019-04-25T15:06:34.304Z,21.01
2019-04-25T15:07:34.288Z,21.06
2019-04-25T15:08:34.273Z,21.13
2019-04-25T15:09:34.260Z,21.03
2019-04-25T15:10:34.261Z,21.18
2019-04-25T15:11:34.274Z,21.11
2019-04-25T15:12:34.255Z,21.09
2019-04-25T15:13:35.202Z,21.19
2019-04-25T15:14:34.215Z,21.21
2019-04-25T15:15:34.207Z,21.36
2019-04-25T15:16:34.186Z,21.56
2019-04-25T15:17:43.889Z,21.64
2019-04-25T15:18:46.080Z,21.58
2019-04-25T15:19:35.155Z,21.36
2019-04-25T15:20:34.422Z,21.12
2019-04-25T15:21:34.149Z,21.28
2019-04-25T15:22:34.693Z,21.09
2019-04-25T15:23:34.133Z,21.11
2019-04-25T15:24:34.856Z,21.08
2019-04-25T15:25:34.103Z,21.12
2019-04-25T15:26:34.089Z,21.03
2019-04-25T15:27:34.070Z,20.94
2019-04-25T15:28:34.058Z,20.97
2019-04-25T15:29:34.070Z,20.87
2019-04-25T15:30:34.047Z,20.97
2019-04-25T15:31:34.051Z,21.00
2019-04-25T15:32:34.799Z,21.08
2019-04-25T15:33:34.031Z,21.22
2019-04-25T15:34:33.993Z,21.34
2019-04-25T15:35:34.503Z,21.42
2019-04-25T15:36:33.973Z,21.79
2019-04-25T15:37:34.844Z,21.99
2019-04-25T15:38:33.973Z,22.05
2019-04-25T15:39:33.941Z,21.96
2019-04-25T15:40:34.432Z,21.98
2019-04-25T15:41:34.738Z,21.83
2019-04-25T15:42:34.051Z,22.09
2019-04-25T15:43:33.896Z,22.02
2019-04-25T15:44:33.886Z,21.81
2019-04-25T15:45:34.274Z,21.46
2019-04-25T15:46:34.450Z,21.52
2019-04-25T15:47:34.138Z,21.31
2019-04-25T15:48:33.845Z,21.22
2019-04-25T15:49:34.562Z,21.19
2019-04-25T15:50:34.107Z,21.00
2019-04-25T15:51:33.821Z,20.93
2019-04-25T15:52:33.853Z,20.93
2019-04-25T15:53:33.823Z,20.78
2019-04-25T15:54:33.936Z,20.78
2019-04-25T15:55:34.770Z,20.78
2019-04-25T15:56:34.645Z,20.79
2019-04-25T15:57:34.507Z,20.64
2019-04-25T15:58:33.739Z,20.75